createdAt,value
2017-04-26T07:31:55.580Z,4500
2017-04-26T07:32:29.359Z,4532
2017-04-26T07:33:02.673Z,4564
2017-04-26T07:33:34.940Z,4624
2017-04-26T07:34:07.949Z,4668
2017-04-26T07:34:40.237Z,4740
2017-04-26T07:35:13.384Z,4784
2017-04-26T07:35:45.636Z,4908
2017-04-26T07:36:17.906Z,4948
2017-04-26T07:36:50.148Z,5144
2017-04-26T07:37:22.403Z,4288
2017-04-26T07:37:54.660Z,3680
2017-04-26T07:38:27.752Z,3320
2017-04-26T07:39:00.888Z,3128
2017-04-26T07:39:33.151Z,3080
2017-04-26T07:40:05.408Z,2764
2017-04-26T07:40:37.807Z,2808
2017-04-26T07:41:10.075Z,4116
2017-04-26T07:41:42.343Z,4904
2017-04-26T07:42:14.634Z,4880
2017-04-26T07:42:46.970Z,5148
2017-04-26T07:43:19.284Z,5088
2017-04-26T07:43:51.592Z,4944
2017-04-26T07:44:23.892Z,5040
2017-04-26T07:44:56.204Z,4752
2017-04-26T07:45:28.512Z,4712
2017-04-26T07:46:00.816Z,4512
2017-04-26T07:46:33.152Z,2040
2017-04-26T07:47:05.458Z,1880
2017-04-26T07:47:37.764Z,1832
2017-04-26T07:48:10.067Z,1852
2017-04-26T07:48:42.378Z,3232
2017-04-26T07:49:14.701Z,3736
2017-04-26T07:49:47.033Z,3704
2017-04-26T07:50:19.347Z,2124
2017-04-26T07:50:51.661Z,1996
2017-04-26T07:51:23.980Z,2056
2017-04-26T07:51:56.309Z,3064
2017-04-26T07:52:28.602Z,2524
2017-04-26T07:53:00.872Z,3352
2017-04-26T07:53:33.194Z,2100
2017-04-26T07:54:05.468Z,2740
2017-04-26T07:54:37.796Z,2940
2017-04-26T07:55:10.051Z,2544
2017-04-26T07:55:42.289Z,2064
2017-04-26T07:56:15.276Z,1932
2017-04-26T07:56:47.515Z,1916
2017-04-26T07:57:19.769Z,1928
2017-04-26T07:57:52.024Z,1976
2017-04-26T07:58:24.896Z,2008
2017-04-26T07:58:57.162Z,2032
2017-04-26T07:59:29.405Z,2080
2017-04-26T08:00:01.651Z,2144
2017-04-26T08:00:33.922Z,2264
2017-04-26T08:01:06.170Z,2520
2017-04-26T08:01:38.960Z,4636
2017-04-26T08:02:11.245Z,4624
2017-04-26T08:02:43.562Z,3620
2017-04-26T08:03:15.856Z,3728
2017-04-26T08:03:48.164Z,4680
2017-04-26T08:04:20.485Z,2524
2017-04-26T08:04:52.779Z,2520
2017-04-26T08:05:25.080Z,2576
2017-04-26T08:05:57.373Z,2584
2017-04-26T08:06:29.675Z,2600
2017-04-26T08:07:01.973Z,2640
2017-04-26T08:07:34.283Z,2692
2017-04-26T08:08:06.657Z,2676
2017-04-26T08:08:38.960Z,2644
2017-04-26T08:09:11.271Z,2644
2017-04-26T08:09:43.592Z,2628
2017-04-26T08:10:15.889Z,2580
2017-04-26T08:10:48.194Z,2504
2017-04-26T08:11:20.505Z,2400
2017-04-26T08:11:52.813Z,2288
2017-04-26T08:12:25.129Z,2196
2017-04-26T08:12:57.423Z,2136
2017-04-26T08:13:29.755Z,2100
2017-04-26T08:14:02.080Z,2064
2017-04-26T08:14:34.391Z,1992
2017-04-26T08:15:06.697Z,1916
2017-04-26T08:15:39.018Z,1852
2017-04-26T08:16:11.344Z,1760
2017-04-26T08:16:43.745Z,1672
2017-04-26T08:17:16.060Z,1616
2017-04-26T08:17:48.388Z,1568
2017-04-26T08:18:20.703Z,1548
2017-04-26T08:18:53.004Z,1548
2017-04-26T08:19:25.359Z,1712
2017-04-26T08:19:57.953Z,3484
2017-04-26T08:20:30.273Z,3424
2017-04-26T08:21:02.595Z,1652
2017-04-26T08:21:34.904Z,1384
2017-04-26T08:22:07.213Z,1292
2017-04-26T08:22:39.577Z,1240
2017-04-26T08:23:11.889Z,1224
2017-04-26T08:23:44.202Z,1228
2017-04-26T08:24:16.565Z,1252
2017-04-26T08:24:48.867Z,1280
2017-04-26T08:25:21.203Z,1320
2017-04-26T08:25:53.527Z,1356
2017-04-26T08:26:25.857Z,1380
2017-04-26T08:26:58.169Z,1384
2017-04-26T08:27:30.469Z,1380
2017-04-26T08:28:02.784Z,1372
2017-04-26T08:28:35.113Z,1372
2017-04-26T08:29:07.424Z,1368
2017-04-26T08:29:39.733Z,1372
2017-04-26T08:30:12.020Z,1388
2017-04-26T08:30:44.334Z,1416
2017-04-26T08:31:16.356Z,1452
2017-04-26T08:31:48.675Z,1500
2017-04-26T08:32:20.957Z,1548
2017-04-26T08:32:53.221Z,1588
2017-04-26T08:33:26.402Z,1628
2017-04-26T08:33:58.639Z,1660
2017-04-26T08:34:30.917Z,1680
2017-04-26T08:35:03.180Z,1708
2017-04-26T08:35:36.855Z,1752
2017-04-26T08:36:09.120Z,1792
2017-04-26T08:36:41.378Z,1848
2017-04-26T08:37:13.818Z,1916
2017-04-26T08:37:46.099Z,1976
2017-04-26T08:38:18.376Z,2048
2017-04-26T08:38:51.422Z,2124
2017-04-26T08:39:23.688Z,2196
2017-04-26T08:39:55.965Z,2248
2017-04-26T08:40:28.723Z,2292
2017-04-26T08:41:01.053Z,2328
2017-04-26T08:41:33.395Z,2368
2017-04-26T08:42:05.665Z,2400
2017-04-26T08:42:37.941Z,2440
2017-04-26T08:43:10.175Z,2480
2017-04-26T08:43:42.460Z,2552
2017-04-26T08:44:14.775Z,2740
2017-04-26T08:44:47.028Z,4252
2017-04-26T08:45:19.281Z,4232
2017-04-26T08:45:51.529Z,4236
2017-04-26T08:46:23.806Z,4216
2017-04-26T08:46:56.873Z,4220
2017-04-26T08:47:30.404Z,4196
2017-04-26T08:48:02.670Z,3616
2017-04-26T08:48:35.079Z,4040
2017-04-26T08:49:07.318Z,2868
2017-04-26T08:49:39.576Z,2868
2017-04-26T08:50:12.858Z,2740
2017-04-26T08:50:45.107Z,2660
2017-04-26T08:51:18.295Z,2628
2017-04-26T08:51:50.558Z,2600
2017-04-26T08:52:22.840Z,2580
2017-04-26T08:52:55.146Z,2584
2017-04-26T08:53:27.454Z,2680
2017-04-26T08:53:59.756Z,3988
2017-04-26T08:54:32.065Z,3200
2017-04-26T08:55:04.372Z,2564
2017-04-26T08:55:36.686Z,2460
2017-04-26T08:56:08.989Z,2420
2017-04-26T08:56:41.335Z,2412
2017-04-26T08:57:13.678Z,2456
2017-04-26T08:57:45.985Z,2412
2017-04-26T08:58:18.302Z,2372
2017-04-26T08:58:50.669Z,2400
2017-04-26T08:59:22.990Z,2404
2017-04-26T08:59:55.306Z,2372
2017-04-26T09:00:27.681Z,2388
2017-04-26T09:01:00.031Z,2428
2017-04-26T09:01:32.353Z,2472
2017-04-26T09:02:04.645Z,2520
2017-04-26T09:02:36.952Z,2580
2017-04-26T09:03:09.276Z,2636
2017-04-26T09:03:41.591Z,2700
2017-04-26T09:04:13.882Z,2760
2017-04-26T09:04:46.191Z,2824
2017-04-26T09:05:18.505Z,2888
2017-04-26T09:05:51.262Z,2940
2017-04-26T09:07:42.912Z,3192
2017-04-26T09:08:15.218Z,3272
2017-04-26T09:08:47.568Z,3348
2017-04-26T09:09:19.877Z,3384
2017-04-26T09:09:52.194Z,3348
2017-04-26T09:10:24.504Z,3292
2017-04-26T09:10:56.792Z,3240
2017-04-26T09:11:29.086Z,3216
2017-04-26T09:12:01.400Z,3224
2017-04-26T09:12:33.723Z,3200
2017-04-26T09:13:06.035Z,3120
2017-04-26T09:13:38.358Z,2972
2017-04-26T09:14:10.666Z,2828
2017-04-26T09:14:42.973Z,2828
2017-04-26T09:15:15.315Z,2724
2017-04-26T09:15:47.636Z,3384
2017-04-26T09:16:20.053Z,3244
2017-04-26T09:16:52.368Z,3060
2017-04-26T09:17:24.679Z,2888
2017-04-26T09:17:57.006Z,2756
2017-04-26T09:18:29.346Z,2632
2017-04-26T09:19:01.648Z,2536
2017-04-26T09:19:33.959Z,1660
2017-04-26T09:20:06.298Z,1344
2017-04-26T09:20:38.596Z,1244
2017-04-26T09:21:10.920Z,1184
2017-04-26T09:21:43.239Z,1140
2017-04-26T09:22:18.095Z,1100
2017-04-26T09:24:09.363Z,1060
2017-04-26T09:24:41.649Z,1080
2017-04-26T09:25:13.949Z,1104
2017-04-26T09:25:47.795Z,1136
2017-04-26T09:26:20.106Z,1164
2017-04-26T09:26:52.433Z,1184
2017-04-26T09:27:24.745Z,1196
2017-04-26T09:27:57.066Z,1208
2017-04-26T09:28:29.382Z,1216
2017-04-26T09:29:01.683Z,1228
2017-04-26T09:29:33.982Z,1232
2017-04-26T09:30:06.311Z,1224
2017-04-26T09:30:38.631Z,1204
2017-04-26T09:31:10.928Z,1180
2017-04-26T09:31:43.236Z,1156
2017-04-26T09:32:15.508Z,1132
2017-04-26T09:32:47.769Z,1112
2017-04-26T09:33:20.946Z,1096
2017-04-26T09:33:53.188Z,1080
2017-04-26T09:34:25.441Z,1072
2017-04-26T09:34:57.713Z,1064
2017-04-26T09:35:29.950Z,1060
2017-04-26T09:36:02.878Z,1056
2017-04-26T09:36:35.143Z,1064
2017-04-26T09:37:07.397Z,1076
2017-04-26T09:37:39.643Z,1096
2017-04-26T09:38:12.426Z,1124
2017-04-26T09:38:44.729Z,1164
2017-04-26T09:39:17.076Z,1224
2017-04-26T09:39:49.326Z,1296
2017-04-26T09:40:21.596Z,1380
2017-04-26T09:40:53.854Z,1488
2017-04-26T09:41:26.106Z,1600
2017-04-26T09:41:58.364Z,1728
2017-04-26T09:42:30.723Z,1852
2017-04-26T09:43:02.980Z,1972
2017-04-26T09:43:35.923Z,2072
2017-04-26T09:44:08.184Z,2160
2017-04-26T09:44:41.392Z,2240
2017-04-26T09:45:13.774Z,2296
2017-04-26T09:45:46.027Z,2348
2017-04-26T09:46:18.290Z,2388
2017-04-26T09:46:50.540Z,2412
2017-04-26T09:47:22.802Z,2424
2017-04-26T09:47:55.031Z,2432
2017-04-26T09:48:27.290Z,2444
2017-04-26T09:48:59.546Z,2452
2017-04-26T09:49:31.810Z,2468
2017-04-26T09:50:04.914Z,2484
2017-04-26T09:50:37.163Z,2492
2017-04-26T09:51:09.418Z,2500
2017-04-26T09:51:41.670Z,2504
2017-04-26T09:52:13.955Z,2504
2017-04-26T09:52:46.256Z,2504
2017-04-26T09:53:18.567Z,2504
2017-04-26T09:53:50.872Z,2516
2017-04-26T09:54:23.187Z,2528
2017-04-26T09:54:55.488Z,2544
2017-04-26T09:55:27.785Z,2560
2017-04-26T09:56:00.103Z,2572
2017-04-26T09:56:32.401Z,2584
2017-04-26T09:57:04.709Z,2584
2017-04-26T09:57:37.014Z,2576
2017-04-26T09:58:09.344Z,2564
2017-04-26T09:58:41.660Z,2560
2017-04-26T09:59:13.969Z,2556
2017-04-26T09:59:46.274Z,2548
2017-04-26T10:00:18.577Z,2540
2017-04-26T10:00:50.887Z,2528
2017-04-26T10:01:23.201Z,2512
2017-04-26T10:01:55.497Z,2496
2017-04-26T10:02:28.417Z,2464
2017-04-26T10:03:00.670Z,2428
2017-04-26T10:03:32.940Z,2380
2017-04-26T10:04:05.195Z,2320
2017-04-26T10:04:38.468Z,2252
2017-04-26T10:05:11.488Z,2180
2017-04-26T10:05:43.749Z,2104
2017-04-26T10:06:16.936Z,2048
2017-04-26T10:06:49.230Z,2020
2017-04-26T10:07:21.496Z,2012
2017-04-26T10:07:53.801Z,2008
2017-04-26T10:08:27.936Z,2012
2017-04-26T10:09:00.799Z,2028
2017-04-26T10:09:33.944Z,2056
2017-04-26T10:10:07.057Z,2084
2017-04-26T10:10:39.918Z,2124
2017-04-26T10:11:12.210Z,2164
2017-04-26T10:11:44.503Z,2192
2017-04-26T10:12:17.922Z,2220
2017-04-26T10:12:50.964Z,2244
2017-04-26T10:13:23.800Z,2272
2017-04-26T10:14:43.815Z,2368
2017-04-26T10:15:45.907Z,2428
2017-04-26T10:16:19.037Z,2460
2017-04-26T10:16:51.851Z,2480
2017-04-26T10:17:24.115Z,2500
2017-04-26T10:18:00.536Z,2516
2017-04-26T10:18:35.980Z,2528
2017-04-26T10:19:08.259Z,2532
2017-04-26T10:19:40.512Z,2540
2017-04-26T10:20:13.362Z,2548
2017-04-26T10:20:45.609Z,2568
2017-04-26T10:21:17.884Z,2588
2017-04-26T10:21:50.155Z,2612
2017-04-26T10:22:22.429Z,2640
2017-04-26T10:22:54.740Z,2668
2017-04-26T10:23:27.035Z,2688
2017-04-26T10:23:59.363Z,2716
2017-04-26T10:24:31.828Z,2744
2017-04-26T10:25:04.126Z,2764
2017-04-26T10:25:36.429Z,2784
2017-04-26T10:26:08.757Z,2804
2017-04-26T10:26:41.062Z,2832
2017-04-26T10:27:13.426Z,2848
2017-04-26T10:28:08.476Z,2892
2017-04-26T10:29:03.450Z,2912
2017-04-26T10:29:35.769Z,2920
2017-04-26T10:30:08.083Z,2920
2017-04-26T10:30:55.084Z,2904
2017-04-26T10:31:36.379Z,2876
2017-04-26T10:32:09.391Z,2864
2017-04-26T10:32:41.651Z,2848
2017-04-26T10:33:13.901Z,2828
2017-04-26T10:33:46.134Z,2816
2017-04-26T10:34:18.381Z,2804
2017-04-26T10:34:50.617Z,2808
2017-04-26T10:35:22.865Z,2800
2017-04-26T10:35:55.979Z,2796
2017-04-26T10:36:28.255Z,2800
2017-04-26T10:37:01.885Z,2808
2017-04-26T10:37:34.170Z,2820
2017-04-26T10:38:08.053Z,2856
2017-04-26T10:38:41.445Z,2928
2017-04-26T10:39:13.696Z,2996
2017-04-26T10:39:46.440Z,2900
2017-04-26T10:40:19.365Z,2912
2017-04-26T10:40:51.655Z,2936
2017-04-26T10:41:23.947Z,2960
2017-04-26T10:41:56.212Z,2984
2017-04-26T10:42:28.501Z,3016
2017-04-26T10:43:00.845Z,3040
2017-04-26T10:43:33.182Z,3048
2017-04-26T10:44:05.493Z,3084
2017-04-26T10:44:37.799Z,3084
2017-04-26T10:45:10.130Z,3136
2017-04-26T10:45:42.449Z,3452
2017-04-26T10:46:14.771Z,3148
2017-04-26T10:46:47.074Z,4616
2017-04-26T10:48:39.026Z,4076
2017-04-26T10:49:17.650Z,3568
2017-04-26T10:49:49.960Z,4056
2017-04-26T10:50:22.979Z,4328
2017-04-26T10:50:55.307Z,3820
2017-04-26T10:51:27.720Z,4428
2017-04-26T10:52:00.029Z,4340
2017-04-26T10:52:32.870Z,4344
2017-04-26T10:53:05.147Z,4444
2017-04-26T10:53:37.519Z,4476
2017-04-26T10:54:10.435Z,4192
2017-04-26T10:54:42.711Z,3828
2017-04-26T10:55:15.024Z,3932
2017-04-26T10:55:47.298Z,3068
2017-04-26T10:56:20.342Z,2948
2017-04-26T10:56:52.595Z,2856
2017-04-26T10:57:24.932Z,2808
2017-04-26T10:57:57.243Z,2796
2017-04-26T10:58:29.495Z,2784
2017-04-26T10:59:01.773Z,2812
2017-04-26T10:59:35.885Z,2840
2017-04-26T11:00:09.052Z,2824
2017-04-26T11:00:42.462Z,2852
2017-04-26T11:01:15.840Z,2900
2017-04-26T11:01:48.149Z,2956
2017-04-26T11:02:21.332Z,3020
2017-04-26T11:02:55.427Z,3096
2017-04-26T11:03:29.012Z,3140
2017-04-26T11:04:02.002Z,3244
2017-04-26T11:04:34.247Z,3576
2017-04-26T11:05:07.336Z,3500
2017-04-26T11:05:39.610Z,3808
2017-04-26T11:06:11.874Z,4236
2017-04-26T11:06:44.996Z,4340
2017-04-26T11:07:17.258Z,4792
2017-04-26T11:07:49.524Z,5092
2017-04-26T11:08:22.286Z,5284
2017-04-26T11:08:54.552Z,5468
2017-04-26T11:09:26.827Z,5584
2017-04-26T11:09:59.111Z,5632
2017-04-26T11:10:31.402Z,5824
2017-04-26T11:11:03.775Z,5944
2017-04-26T11:11:36.083Z,6096
2017-04-26T11:12:08.384Z,6212
2017-04-26T11:12:40.699Z,6356
2017-04-26T11:13:13.013Z,6516
2017-04-26T11:13:45.357Z,6740
2017-04-26T11:14:17.664Z,6908
2017-04-26T11:14:49.970Z,7040
2017-04-26T11:15:22.270Z,7188
2017-04-26T11:15:54.566Z,7312
2017-04-26T11:16:26.883Z,7448
2017-04-26T11:16:59.219Z,7564
2017-04-26T11:17:31.526Z,7672
2017-04-26T11:18:03.829Z,7768
2017-04-26T11:18:36.129Z,7876
2017-04-26T11:19:08.442Z,7976
2017-04-26T11:19:40.738Z,8076
2017-04-26T11:20:13.052Z,8168
2017-04-26T11:20:45.359Z,8240
2017-04-26T11:21:17.670Z,8220
2017-04-26T11:21:49.986Z,7568
2017-04-26T11:22:27.189Z,7696
2017-04-26T11:22:59.510Z,8192
2017-04-26T11:23:31.817Z,8128
2017-04-26T11:24:04.128Z,7964
2017-04-26T11:24:36.430Z,7828
2017-04-26T11:25:08.727Z,7416
2017-04-26T11:25:41.033Z,7192
2017-04-26T11:26:13.348Z,6652
2017-04-26T11:26:45.658Z,6416
2017-04-26T11:27:17.978Z,5420
2017-04-26T11:27:50.299Z,5484
2017-04-26T11:28:22.631Z,4684
2017-04-26T11:28:54.934Z,3292
2017-04-26T11:29:27.243Z,2828
2017-04-26T11:29:59.559Z,2516
2017-04-26T11:30:31.863Z,2300
2017-04-26T11:31:04.182Z,2168
2017-04-26T11:31:36.480Z,2080
2017-04-26T11:32:08.753Z,2028
2017-04-26T11:32:41.008Z,2000
2017-04-26T11:33:13.839Z,1996
2017-04-26T11:33:46.166Z,2016
2017-04-26T11:34:18.434Z,2052
2017-04-26T11:34:50.693Z,2084
2017-04-26T11:35:22.999Z,2108
2017-04-26T11:35:55.869Z,2116
2017-04-26T11:36:28.117Z,2120
2017-04-26T11:37:00.361Z,2116
2017-04-26T11:37:32.601Z,2112
2017-04-26T11:38:05.837Z,2104
2017-04-26T11:38:38.132Z,2092
2017-04-26T11:39:10.410Z,2080
2017-04-26T11:39:42.658Z,2052
2017-04-26T11:40:14.913Z,2024
2017-04-26T11:40:47.155Z,1992
2017-04-26T11:41:19.409Z,1952
2017-04-26T11:41:51.657Z,1904
2017-04-26T11:42:23.971Z,1860
2017-04-26T11:42:56.287Z,1816
2017-04-26T11:43:28.631Z,1776
2017-04-26T11:44:00.976Z,1740
2017-04-26T11:44:33.293Z,1708
2017-04-26T11:45:05.610Z,1676
2017-04-26T11:45:37.926Z,1648
2017-04-26T11:46:10.254Z,1620
2017-04-26T11:46:42.572Z,1600
2017-04-26T11:47:14.891Z,1580
2017-04-26T11:47:47.199Z,1564
2017-04-26T11:48:19.493Z,1544
2017-04-26T11:48:51.795Z,1524
2017-04-26T11:49:24.110Z,1496
2017-04-26T11:49:56.450Z,1472
2017-04-26T11:50:28.763Z,1452
2017-04-26T11:51:01.076Z,1424
2017-04-26T11:51:33.382Z,1400
2017-04-26T11:52:05.708Z,1376
2017-04-26T11:52:38.013Z,1364
2017-04-26T11:53:10.328Z,1348
2017-04-26T11:53:42.634Z,1340
2017-04-26T11:54:14.957Z,1332
2017-04-26T11:54:47.271Z,1332
2017-04-26T11:55:19.572Z,1348
2017-04-26T11:55:51.882Z,1372
2017-04-26T11:56:24.183Z,1412
2017-04-26T11:56:56.478Z,1476
2017-04-26T11:57:28.775Z,1556
2017-04-26T11:58:01.096Z,1656
2017-04-26T11:58:33.408Z,1780
2017-04-26T11:59:05.732Z,1932
2017-04-26T11:59:38.037Z,2104
2017-04-26T12:00:10.360Z,2312
2017-04-26T12:00:42.677Z,2532
2017-04-26T12:01:14.979Z,2800
2017-04-26T12:01:47.283Z,3100
2017-04-26T12:02:19.575Z,3408
2017-04-26T12:02:51.888Z,3728
2017-04-26T12:03:24.191Z,4084
2017-04-26T12:03:56.485Z,4480
2017-04-26T12:04:28.791Z,4904
2017-04-26T12:05:01.113Z,5332
2017-04-26T12:05:33.424Z,5704
2017-04-26T12:06:05.745Z,6040
2017-04-26T12:06:38.057Z,6316
2017-04-26T12:07:10.356Z,6508
2017-04-26T12:07:42.685Z,6680
2017-04-26T12:08:15.034Z,6844
2017-04-26T12:08:47.330Z,7016
2017-04-26T12:09:19.640Z,7216
2017-04-26T12:09:51.959Z,7592
2017-04-26T12:10:24.272Z,7768
2017-04-26T12:10:56.576Z,8036
2017-04-26T12:11:28.901Z,8688
2017-04-26T12:12:01.211Z,10764
2017-04-26T12:12:33.513Z,11052
2017-04-26T12:13:05.808Z,9952
2017-04-26T12:13:38.126Z,8456
2017-04-26T12:14:10.430Z,8564
2017-04-26T12:14:42.738Z,9232
2017-04-26T12:15:15.045Z,11600
2017-04-26T12:15:47.346Z,13360
2017-04-26T12:16:19.659Z,10640
2017-04-26T12:16:51.944Z,9676
2017-04-26T12:17:24.248Z,8708
2017-04-26T12:17:56.553Z,8548
2017-04-26T12:18:28.862Z,8544
2017-04-26T12:19:01.169Z,8652
2017-04-26T12:19:33.492Z,8668
2017-04-26T12:20:05.812Z,8824
2017-04-26T12:20:38.121Z,10996
2017-04-26T12:21:10.419Z,9400
2017-04-26T12:21:42.762Z,9600
2017-04-26T12:22:15.036Z,9564
2017-04-26T12:22:47.312Z,9736
2017-04-26T12:23:20.517Z,9768
2017-04-26T12:23:52.769Z,7428
2017-04-26T12:24:25.899Z,7284
2017-04-26T12:24:58.164Z,7092
2017-04-26T12:25:30.593Z,6956
2017-04-26T12:26:02.897Z,6808
2017-04-26T12:26:35.142Z,6756
2017-04-26T12:27:07.411Z,6792
2017-04-26T12:27:40.396Z,6924
2017-04-26T12:28:12.647Z,7096
2017-04-26T12:28:44.940Z,7216
2017-04-26T12:29:18.426Z,7184
2017-04-26T12:29:52.602Z,7092
2017-04-26T12:30:29.771Z,7032
2017-04-26T12:31:08.739Z,6968
2017-04-26T12:31:44.097Z,6716
2017-04-26T12:32:20.840Z,6584
2017-04-26T12:32:57.311Z,6432
2017-04-26T12:34:48.970Z,6328
2017-04-26T12:35:21.355Z,6368
2017-04-26T12:35:53.649Z,6436
2017-04-26T12:36:25.959Z,6580
2017-04-26T12:36:58.291Z,6816
2017-04-26T12:37:30.636Z,7140
2017-04-26T12:38:02.952Z,7540
2017-04-26T12:38:35.238Z,7940
2017-04-26T12:39:07.561Z,8372
2017-04-26T12:39:41.663Z,8704
2017-04-26T12:41:33.485Z,10128
2017-04-26T12:42:06.385Z,10720
2017-04-26T12:42:39.515Z,12556
2017-04-26T12:43:11.788Z,11792
2017-04-26T12:43:44.019Z,11236
2017-04-26T12:44:16.941Z,11908
2017-04-26T12:44:49.210Z,11968
2017-04-26T12:45:24.135Z,12600
2017-04-26T12:45:57.467Z,11644
2017-04-26T12:46:29.894Z,12148
2017-04-26T12:47:02.137Z,13304
2017-04-26T12:47:34.465Z,13100
2017-04-26T12:48:07.419Z,12904
2017-04-26T12:48:39.666Z,13176
2017-04-26T12:49:11.914Z,13048
2017-04-26T12:49:44.392Z,12024
2017-04-26T12:50:17.354Z,12516
2017-04-26T12:50:49.635Z,13280
2017-04-26T12:51:21.918Z,13584
2017-04-26T12:51:54.176Z,11180
2017-04-26T12:52:26.437Z,9548
2017-04-26T12:52:58.689Z,10888
2017-04-26T12:53:31.943Z,15340
2017-04-26T12:54:04.217Z,15784
2017-04-26T12:54:36.483Z,15872
2017-04-26T12:55:08.713Z,15696
2017-04-26T12:55:40.974Z,12828
2017-04-26T12:56:13.251Z,16888
2017-04-26T12:56:45.651Z,16800
2017-04-26T12:57:18.867Z,16924
2017-04-26T12:57:51.136Z,18336
2017-04-26T12:58:23.397Z,15596
2017-04-26T12:58:55.743Z,14328
2017-04-26T12:59:27.984Z,19616
2017-04-26T13:00:00.249Z,15408
2017-04-26T13:00:32.529Z,20448
2017-04-26T13:01:04.791Z,15072
2017-04-26T13:01:37.076Z,19104
2017-04-26T13:02:09.908Z,20128
2017-04-26T13:02:42.220Z,19840
2017-04-26T13:03:14.524Z,16436
2017-04-26T13:03:46.843Z,12092
2017-04-26T13:04:19.147Z,19680
2017-04-26T13:04:51.458Z,20544
2017-04-26T13:05:23.756Z,20768
2017-04-26T13:05:56.060Z,21024
2017-04-26T13:06:28.387Z,21632
2017-04-26T13:07:00.686Z,21088
2017-04-26T13:07:33.055Z,18208
2017-04-26T13:08:05.389Z,19136
2017-04-26T13:08:37.717Z,20992
2017-04-26T13:09:10.050Z,20320
2017-04-26T13:09:42.558Z,17900
2017-04-26T13:10:14.987Z,12840
2017-04-26T13:10:47.308Z,19008
2017-04-26T13:11:19.631Z,20448
2017-04-26T13:11:51.975Z,20192
2017-04-26T13:12:24.298Z,20128
2017-04-26T13:12:56.615Z,20672
2017-04-26T13:13:28.935Z,21152
2017-04-26T13:14:01.238Z,19712
2017-04-26T13:14:33.543Z,19232
2017-04-26T13:15:05.868Z,21632
2017-04-26T13:15:38.180Z,21728
2017-04-26T13:16:10.507Z,16164
2017-04-26T13:16:42.846Z,14896
2017-04-26T13:17:15.170Z,11848
2017-04-26T13:17:47.511Z,19296
2017-04-26T13:18:19.819Z,21024
2017-04-26T13:18:52.148Z,20288
2017-04-26T13:19:24.464Z,20704
2017-04-26T13:19:56.803Z,22944
2017-04-26T13:20:29.119Z,23360
2017-04-26T13:21:01.458Z,23424
2017-04-26T13:21:33.764Z,23520
2017-04-26T13:22:06.096Z,23424
2017-04-26T13:23:57.632Z,24000
2017-04-26T13:24:29.965Z,23968
2017-04-26T13:25:02.307Z,23808
2017-04-26T13:25:34.605Z,24320
2017-04-26T13:26:06.936Z,21280
2017-04-26T13:26:42.061Z,11200
2017-04-26T13:27:14.377Z,9764
2017-04-26T13:27:46.692Z,7388
2017-04-26T13:28:19.014Z,16768
2017-04-26T13:28:51.311Z,6324
2017-04-26T13:29:23.608Z,5868
2017-04-26T13:29:55.923Z,5916
2017-04-26T13:30:28.218Z,6556
2017-04-26T13:31:00.527Z,7236
2017-04-26T13:31:32.841Z,23776
2017-04-26T13:32:05.154Z,24512
2017-04-26T13:32:37.478Z,24320
2017-04-26T13:33:09.995Z,24512
2017-04-26T13:33:42.319Z,24256
2017-04-26T13:34:14.683Z,24032
2017-04-26T13:34:46.996Z,23712
2017-04-26T13:35:19.295Z,23424
2017-04-26T13:35:51.588Z,23424
2017-04-26T13:36:23.960Z,23296
2017-04-26T13:36:56.258Z,23296
2017-04-26T13:37:28.607Z,23264
2017-04-26T13:38:00.921Z,23168
2017-04-26T13:39:52.632Z,23136
2017-04-26T13:40:24.943Z,23040
2017-04-26T13:40:57.269Z,22848
2017-04-26T13:41:29.591Z,22784
2017-04-26T13:42:01.921Z,22848
2017-04-26T13:42:34.202Z,22880
2017-04-26T13:43:07.007Z,22848
2017-04-26T13:43:39.271Z,22720
2017-04-26T13:44:11.503Z,22720
2017-04-26T13:44:44.396Z,22688
2017-04-26T13:45:16.685Z,22496
2017-04-26T13:45:48.931Z,22336
2017-04-26T13:46:21.212Z,22336
2017-04-26T13:46:53.440Z,22272
2017-04-26T13:47:26.476Z,22240
2017-04-26T13:47:58.746Z,22176
2017-04-26T13:48:31.019Z,22080
2017-04-26T13:49:03.299Z,22112
2017-04-26T13:49:35.583Z,21984
2017-04-26T13:50:08.582Z,21952
2017-04-26T13:50:40.844Z,21920
2017-04-26T13:51:13.992Z,21792
2017-04-26T13:51:46.275Z,21920
2017-04-26T13:52:18.566Z,21888
2017-04-26T13:52:50.890Z,21984
2017-04-26T13:53:23.217Z,21952
2017-04-26T13:53:55.522Z,21856
2017-04-26T13:54:27.938Z,22016
2017-04-26T13:55:00.239Z,21824
2017-04-26T13:55:32.556Z,21888
2017-04-26T13:56:04.881Z,21760
2017-04-26T13:56:37.194Z,21792
2017-04-26T13:57:09.523Z,21984
2017-04-26T13:57:41.837Z,22208
2017-04-26T13:58:14.170Z,22848
2017-04-26T13:58:46.497Z,25888
2017-04-26T13:59:18.814Z,34784
2017-04-26T13:59:51.126Z,43552
2017-04-26T14:00:23.464Z,52608
2017-04-26T14:00:55.766Z,60160
2017-04-26T14:01:28.112Z,63744
2017-04-26T14:02:00.444Z,69856
2017-04-26T14:02:32.736Z,75136
2017-04-26T14:03:04.999Z,79200
2017-04-26T14:03:37.266Z,84704
2017-04-26T14:04:09.596Z,85344
2017-04-26T14:04:41.864Z,80960
2017-04-26T14:05:14.159Z,77056
2017-04-26T14:05:47.490Z,80992
2017-04-26T14:06:19.748Z,79936
2017-04-26T14:06:52.986Z,80288
2017-04-26T14:07:26.190Z,80064
2017-04-26T14:07:58.467Z,78816
2017-04-26T14:08:30.723Z,76736
2017-04-26T14:09:03.004Z,74464
2017-04-26T14:09:36.048Z,75456
2017-04-26T14:10:09.034Z,75872
2017-04-26T14:10:42.090Z,75712
2017-04-26T14:11:14.446Z,74848
2017-04-26T14:11:47.483Z,74816
2017-04-26T14:12:19.739Z,74784
2017-04-26T14:12:52.086Z,75552
2017-04-26T14:13:24.355Z,74560
2017-04-26T14:13:56.625Z,73760
2017-04-26T14:14:29.590Z,73152
2017-04-26T14:15:01.848Z,72160
2017-04-26T14:15:34.097Z,72256
2017-04-26T14:16:07.094Z,72384
2017-04-26T14:16:39.371Z,75040
2017-04-26T14:17:11.640Z,73056
2017-04-26T14:17:43.909Z,74176
2017-04-26T14:18:16.187Z,74944
2017-04-26T14:18:48.429Z,75104
2017-04-26T14:19:20.709Z,73920
2017-04-26T14:19:52.977Z,73472
2017-04-26T14:20:26.691Z,72832
2017-04-26T14:20:59.046Z,72352
2017-04-26T14:21:31.308Z,70496
2017-04-26T14:22:03.577Z,68928
2017-04-26T14:22:35.886Z,69536
2017-04-26T14:23:08.140Z,68576
2017-04-26T14:23:41.091Z,70400
2017-04-26T14:24:17.056Z,67392
2017-04-26T14:24:50.055Z,67584
2017-04-26T14:25:23.602Z,66976
2017-04-26T14:25:55.992Z,67104
2017-04-26T14:26:28.985Z,66592
2017-04-26T14:27:01.290Z,67264
2017-04-26T14:27:33.568Z,68480
2017-04-26T14:28:06.511Z,67488
2017-04-26T14:28:39.584Z,67328
2017-04-26T14:29:13.197Z,66656
2017-04-26T14:29:45.988Z,65472
2017-04-26T14:30:19.010Z,67040
2017-04-26T14:30:51.266Z,68800
2017-04-26T14:31:24.483Z,68096
2017-04-26T14:31:57.589Z,65856
2017-04-26T14:32:29.882Z,63840
2017-04-26T14:33:02.190Z,62720
2017-04-26T14:33:34.503Z,61536
2017-04-26T14:34:06.832Z,61440
2017-04-26T14:34:39.146Z,61792
2017-04-26T14:35:11.489Z,62752
2017-04-26T14:35:43.833Z,62112
2017-04-26T14:36:16.153Z,62944
2017-04-26T14:36:48.459Z,64640
2017-04-26T14:37:20.770Z,65536
2017-04-26T14:37:53.073Z,64320
2017-04-26T14:38:25.373Z,63328
2017-04-26T14:38:57.687Z,59296
2017-04-26T14:39:30.032Z,57696
2017-04-26T14:40:02.343Z,57792
2017-04-26T14:40:34.652Z,59968
2017-04-26T14:41:06.964Z,62304
2017-04-26T14:41:39.288Z,63200
2017-04-26T14:42:11.594Z,61760
2017-04-26T14:42:43.890Z,61216
2017-04-26T14:43:16.230Z,61152
2017-04-26T14:43:48.542Z,59456
2017-04-26T14:44:20.851Z,57184
2017-04-26T14:44:53.180Z,57792
2017-04-26T14:45:25.514Z,59168
2017-04-26T14:45:57.816Z,60384
2017-04-26T14:46:30.138Z,59872
2017-04-26T14:47:02.446Z,60480
2017-04-26T14:47:34.763Z,60032
2017-04-26T14:48:07.090Z,59488
2017-04-26T14:48:39.400Z,62240
2017-04-26T14:49:11.727Z,61856
2017-04-26T14:49:44.039Z,62752
2017-04-26T14:50:16.365Z,63328
2017-04-26T14:50:48.683Z,63424
2017-04-26T14:51:21.004Z,63200